Monday, January 22, 2018, 8:56 AM EST
Back to Local

K1V4, St Johnsbury Fairbanks

Location: Saint Johnsbury, VT, United States Lat: 44.417
Local Time: 8:56 AM EST (13:56 GMT) Lon: -72.017
Time Zone: US/Eastern Elev: 695 ft

Show me the last for .
Show Coded

Time T Td Feel RH Dir Speed Gust Alt SLP Vis Weather Sky Remarks
2018-01-22 07:54 32 27 - 81 - - - 30.21 30.24 0 None
2018-01-22 06:54 32 27 - 81 - - - 30.19 30.22 0 6-hr Min Temp (7am): 32.0°F
6-hr Max Temp (7am): 32.0°F
2018-01-22 05:54 32 27 - 81 - - - 30.17 30.19 0 None
2018-01-22 04:54 32 27 - 81 - - - 30.16 30.19 0 None
2018-01-22 03:54 32 27 - 81 - - - 30.16 30.19 0 None
2018-01-22 02:54 32 27 - 81 - - - 30.16 30.19 0 None
2018-01-22 01:54 32 28 - 85 - - - 30.15 30.18 0 None
2018-01-22 00:54 32 28 - 85 - - - 30.14 30.17 0 6-hr Min Temp (1am): 32.0°F
6-hr Max Temp (1am): 34.0°F
2018-01-21 23:54 32 28 - 85 - - - 30.14 30.17 0 24-hr Min Temp (12am): 32.0°F
24-hr Max Temp (12am): 39.9°F
2018-01-21 22:54 32 28 - 85 - - - 30.14 30.17 0 None
2018-01-21 21:54 33 28 - 81 - - - 30.14 30.17 0 None
2018-01-21 20:54 34 28 - 78 - - - 30.14 30.16 0 None
2018-01-21 19:54 34 28 - 78 - - - 30.13 30.16 0 None
2018-01-21 18:54 34 29 - 81 - - - 30.12 30.15 0 6-hr Min Temp (7pm): 34.0°F
6-hr Max Temp (7pm): 39.9°F
2018-01-21 17:54 35 29 - 78 - - - 30.12 30.14 0 None
2018-01-21 16:54 37 28 - 69 - - - 30.10 30.12 0 None
2018-01-21 15:54 39 27 - 61 - - - 30.09 30.11 0 None
2018-01-21 14:54 39 27 - 61 - - - 30.08 30.10 0 None
2018-01-21 13:54 38 27 - 64 - - - 30.07 30.09 0 None
2018-01-21 12:54 37 27 - 66 - - - 30.07 30.09 0 6-hr Min Temp (1pm): 34.0°F
6-hr Max Temp (1pm): 37.9°F
2018-01-21 11:54 36 26 - 66 - - - 30.09 30.11 0 None
2018-01-21 10:54 36 26 - 66 - - - 30.10 30.12 0 None
2018-01-21 09:54 35 26 - 69 - - - 30.09 30.12 0 None

Support USWX by starting your Amazon purchase here.